Time;durP1;ratioP1;P1;durP2;ratioP2;P2;SDS_P1;SDS_P2;PMS_P1;PMS_P2;Temp;Humidity;BMP_temperature;BMP_pressure;BME280_temperature;BME280_humidity;BME280_pressure;Samples;Min_cycle;Max_cycle;Signal;HPM_P1;HPM_P2
2024/03/26 00:01:57;;;;;;;3.30;3.00;;;5.60;99.90;;;;;;4954336;28;20428;-66
2024/03/26 00:04:23;;;;;;;3.57;2.93;;;5.60;99.90;;;;;;4954466;28;20468;-68
2024/03/26 00:06:48;;;;;;;8.50;2.83;;;5.70;99.90;;;;;;4952387;28;20675;-67
2024/03/26 00:09:13;;;;;;;4.33;2.90;;;5.70;99.90;;;;;;4954379;28;20219;-68
2024/03/26 00:11:39;;;;;;;2.80;2.53;;;5.80;99.90;;;;;;4954647;28;20188;-66
2024/03/26 00:14:04;;;;;;;3.50;3.20;;;5.80;99.90;;;;;;4952425;28;20217;-66
2024/03/26 00:16:30;;;;;;;3.73;3.33;;;5.80;99.90;;;;;;4951093;29;20187;-65
2024/03/26 00:18:55;;;;;;;7.03;2.80;;;5.80;99.90;;;;;;4951139;28;20185;-66
2024/03/26 00:21:21;;;;;;;4.37;3.23;;;5.80;99.90;;;;;;4958269;28;20228;-68
2024/03/26 00:23:46;;;;;;;3.73;2.70;;;5.80;99.90;;;;;;4955212;28;20179;-65
2024/03/26 00:26:12;;;;;;;4.90;3.30;;;5.80;99.90;;;;;;4953647;28;20651;-66
2024/03/26 00:28:37;;;;;;;5.73;2.90;;;5.80;99.90;;;;;;4952563;28;20189;-69
2024/03/26 00:31:03;;;;;;;4.70;3.30;;;5.80;99.90;;;;;;4953876;28;20196;-66
2024/03/26 00:33:28;;;;;;;3.50;3.10;;;5.80;99.90;;;;;;4954338;28;20189;-66
2024/03/26 00:35:54;;;;;;;3.67;2.67;;;5.80;99.90;;;;;;4949647;28;20200;-66
2024/03/26 00:38:19;;;;;;;4.90;3.07;;;5.80;99.90;;;;;;4951471;28;20188;-66
2024/03/26 00:40:45;;;;;;;3.93;2.93;;;5.80;99.90;;;;;;4953370;28;20595;-66
2024/03/26 00:43:10;;;;;;;9.70;3.10;;;5.70;99.90;;;;;;4953474;28;20224;-67
2024/03/26 00:45:36;;;;;;;3.90;3.10;;;5.60;99.90;;;;;;4944370;29;20204;-65
2024/03/26 00:48:01;;;;;;;4.10;3.17;;;5.60;99.90;;;;;;4952503;28;20265;-67
2024/03/26 00:50:27;;;;;;;5.73;4.10;;;5.60;99.90;;;;;;4951053;28;20180;-66
2024/03/26 00:52:52;;;;;;;3.70;3.00;;;5.60;99.90;;;;;;4953620;28;20201;-66
2024/03/26 00:55:18;;;;;;;3.40;3.10;;;5.50;99.90;;;;;;4953058;28;20255;-68
2024/03/26 00:57:46;;;;;;;7.30;3.13;;;5.40;99.90;;;;;;4949730;28;20180;-65
2024/03/26 01:00:13;;;;;;;4.90;3.47;;;5.30;99.90;;;;;;4948930;28;20600;-65
2024/03/26 01:02:39;;;;;;;4.40;3.90;;;5.30;99.90;;;;;;4953906;28;21002;-68
2024/03/26 01:05:05;;;;;;;3.67;2.97;;;5.30;99.90;;;;;;4953526;28;20478;-66
2024/03/26 01:07:31;;;;;;;4.43;3.30;;;5.20;99.90;;;;;;4951756;28;20177;-69
2024/03/26 01:09:56;;;;;;;5.43;3.10;;;5.20;99.90;;;;;;4948071;28;20532;-66
2024/03/26 01:12:22;;;;;;;4.73;2.97;;;5.00;99.90;;;;;;4953681;28;20655;-66
2024/03/26 01:14:48;;;;;;;4.03;3.20;;;4.90;99.90;;;;;;4949452;29;20276;-69
2024/03/26 01:17:13;;;;;;;3.53;3.10;;;4.80;99.90;;;;;;4951883;28;20268;-65
2024/03/26 01:19:39;;;;;;;6.27;3.43;;;4.80;99.90;;;;;;4950212;28;20475;-66
2024/03/26 01:22:04;;;;;;;4.27;3.27;;;4.80;99.90;;;;;;4953054;28;20657;-66
2024/03/26 01:24:30;;;;;;;9.13;3.97;;;4.80;99.90;;;;;;4952518;28;20193;-65
2024/03/26 01:26:55;;;;;;;12.00;5.47;;;4.90;99.90;;;;;;4952255;28;20223;-66
2024/03/26 01:29:21;;;;;;;4.53;3.90;;;4.90;99.90;;;;;;4952726;28;20178;-67
2024/03/26 01:31:46;;;;;;;7.60;4.77;;;4.90;99.90;;;;;;4953213;28;20196;-66
2024/03/26 01:34:16;;;;;;;5.17;3.57;;;4.90;99.90;;;;;;4952308;28;20663;-66
2024/03/26 01:36:41;;;;;;;4.07;3.50;;;4.90;99.90;;;;;;4950206;28;20192;-65
2024/03/26 01:39:06;;;;;;;4.43;2.87;;;4.90;99.90;;;;;;4950368;28;20492;-66
2024/03/26 01:41:32;;;;;;;3.80;3.43;;;4.80;99.90;;;;;;4952803;28;20610;-66
2024/03/26 01:43:57;;;;;;;4.70;3.40;;;4.80;99.90;;;;;;4953038;28;20205;-65
2024/03/26 01:46:23;;;;;;;4.30;3.57;;;4.70;99.90;;;;;;4952375;28;20188;-65
2024/03/26 01:48:49;;;;;;;5.80;3.63;;;4.70;99.90;;;;;;4952346;28;20315;-66
2024/03/26 01:51:14;;;;;;;8.03;3.30;;;4.70;99.90;;;;;;4951650;28;20705;-65
2024/03/26 01:53:40;;;;;;;4.33;3.60;;;4.70;99.90;;;;;;4952584;28;20552;-65
2024/03/26 01:56:06;;;;;;;4.10;3.30;;;4.60;99.90;;;;;;4953179;28;20185;-66
2024/03/26 01:58:32;;;;;;;4.03;3.33;;;4.40;99.90;;;;;;4950420;28;20555;-66
2024/03/26 02:00:59;;;;;;;10.37;6.70;;;4.40;99.90;;;;;;4950852;28;20456;-67
2024/03/26 02:03:24;;;;;;;7.13;5.10;;;4.40;99.90;;;;;;4953054;28;20177;-66
2024/03/26 02:05:50;;;;;;;6.13;3.70;;;4.40;99.90;;;;;;4953937;28;20468;-68
2024/03/26 02:08:16;;;;;;;6.93;3.47;;;4.40;99.90;;;;;;4951945;29;20231;-66
2024/03/26 02:10:42;;;;;;;6.70;3.33;;;4.40;99.90;;;;;;4955920;28;20220;-65
2024/03/26 02:13:07;;;;;;;4.43;3.37;;;4.30;99.90;;;;;;4956661;28;20459;-66
2024/03/26 02:15:33;;;;;;;5.83;4.60;;;4.30;99.90;;;;;;4956622;28;20213;-66
2024/03/26 02:17:58;;;;;;;6.73;3.67;;;4.30;99.90;;;;;;4955221;28;20196;-66
2024/03/26 02:20:25;;;;;;;4.90;4.20;;;4.40;99.90;;;;;;4952850;28;20240;-66
2024/03/26 02:22:56;;;;;;;5.13;3.70;;;4.30;99.90;;;;;;4952811;28;20252;-69
2024/03/26 02:25:22;;;;;;;5.20;3.80;;;4.30;99.90;;;;;;4955251;28;20459;-66
2024/03/26 02:27:51;;;;;;;9.30;4.43;;;4.30;99.90;;;;;;4956026;28;20495;-68
2024/03/26 02:30:17;;;;;;;4.50;3.70;;;4.30;99.90;;;;;;4955025;28;20700;-66
2024/03/26 02:32:42;;;;;;;6.00;3.80;;;4.40;99.90;;;;;;4956328;28;20528;-66
2024/03/26 02:35:09;;;;;;;4.63;3.80;;;4.40;99.90;;;;;;4955244;28;20208;-66
2024/03/26 02:37:35;;;;;;;4.93;3.60;;;4.50;99.90;;;;;;4954344;28;20235;-66
2024/03/26 02:40:01;;;;;;;3.97;3.57;;;4.50;99.90;;;;;;4955213;28;20495;-65
2024/03/26 02:42:27;;;;;;;6.43;3.43;;;4.50;99.90;;;;;;4961193;28;20177;-65
2024/03/26 02:44:52;;;;;;;6.10;4.07;;;4.40;99.90;;;;;;4956387;28;20228;-66
2024/03/26 02:47:18;;;;;;;5.03;4.07;;;4.40;99.90;;;;;;4958673;28;20468;-66
2024/03/26 02:49:44;;;;;;;4.60;4.20;;;4.50;99.90;;;;;;4955674;28;20207;-68
2024/03/26 02:52:09;;;;;;;4.33;3.83;;;4.50;99.90;;;;;;4954789;28;20172;-66
2024/03/26 02:54:34;;;;;;;4.50;3.50;;;4.50;99.90;;;;;;4952194;28;20197;-66
2024/03/26 02:57:00;;;;;;;5.80;4.10;;;4.50;99.90;;;;;;4951859;28;20181;-66
2024/03/26 02:59:25;;;;;;;3.80;3.50;;;4.50;99.90;;;;;;4949675;28;20180;-66
2024/03/26 03:01:51;;;;;;;4.10;3.53;;;4.50;99.90;;;;;;4952603;28;20638;-66
2024/03/26 03:04:16;;;;;;;4.07;3.20;;;4.50;99.90;;;;;;4954909;28;20255;-66
2024/03/26 03:06:42;;;;;;;7.60;4.30;;;4.50;99.90;;;;;;4953851;28;20180;-66
2024/03/26 03:09:09;;;;;;;7.03;4.17;;;4.40;99.90;;;;;;4954867;28;20308;-67
2024/03/26 03:11:34;;;;;;;4.20;3.73;;;4.30;99.90;;;;;;4951009;28;20264;-66
2024/03/26 03:14:00;;;;;;;7.60;3.80;;;4.40;99.90;;;;;;4955370;28;20542;-68
2024/03/26 03:16:25;;;;;;;8.53;4.30;;;4.40;99.90;;;;;;4954289;28;20206;-72
2024/03/26 03:18:50;;;;;;;5.07;4.67;;;4.40;99.90;;;;;;4953258;28;20243;-66
2024/03/26 03:21:16;;;;;;;5.13;3.63;;;4.40;99.90;;;;;;4953686;28;20205;-66
2024/03/26 03:23:41;;;;;;;6.40;4.37;;;4.40;99.90;;;;;;4953641;28;20196;-67
2024/03/26 03:26:07;;;;;;;3.90;3.50;;;4.40;99.90;;;;;;4954948;28;20650;-67
2024/03/26 03:28:32;;;;;;;4.27;3.90;;;4.40;99.90;;;;;;4954592;29;20188;-66
2024/03/26 03:30:58;;;;;;;4.03;3.73;;;4.30;99.90;;;;;;4953816;28;20189;-66
2024/03/26 03:33:23;;;;;;;4.07;3.77;;;4.30;99.90;;;;;;4953858;28;20239;-67
2024/03/26 03:35:50;;;;;;;6.70;4.50;;;4.30;99.90;;;;;;4954112;28;20223;-65
2024/03/26 03:38:16;;;;;;;4.47;4.07;;;4.30;99.90;;;;;;4957989;28;20189;-67
2024/03/26 03:40:41;;;;;;;4.73;3.60;;;4.40;99.90;;;;;;4953676;29;20837;-66
2024/03/26 03:43:07;;;;;;;4.00;3.60;;;4.30;99.90;;;;;;4950906;28;20552;-65
2024/03/26 03:45:32;;;;;;;6.60;4.30;;;4.30;99.90;;;;;;4954491;28;20678;-67
2024/03/26 03:47:58;;;;;;;4.90;4.17;;;4.30;99.90;;;;;;4953076;28;20173;-66
2024/03/26 03:50:23;;;;;;;4.70;4.30;;;4.30;99.90;;;;;;4955135;28;20547;-65
2024/03/26 03:52:49;;;;;;;6.80;4.87;;;4.30;99.90;;;;;;4953851;28;20192;-68
2024/03/26 03:55:15;;;;;;;5.27;4.07;;;4.40;99.90;;;;;;4953668;28;20205;-66
2024/03/26 03:57:40;;;;;;;4.40;3.53;;;4.40;99.90;;;;;;4952658;28;20231;-66
2024/03/26 04:00:07;;;;;;;6.10;4.00;;;4.40;99.90;;;;;;4954694;28;20189;-67
2024/03/26 04:02:33;;;;;;;6.87;3.93;;;4.50;99.90;;;;;;4952540;28;20598;-69
2024/03/26 04:04:58;;;;;;;5.13;4.23;;;4.50;99.90;;;;;;4952106;28;20882;-66
2024/03/26 04:07:24;;;;;;;4.87;4.30;;;4.60;99.90;;;;;;4953422;28;20428;-65
2024/03/26 04:09:52;;;;;;;4.23;3.83;;;4.60;99.90;;;;;;4952778;28;20181;-66
2024/03/26 04:12:17;;;;;;;7.67;4.10;;;4.60;99.90;;;;;;4954517;28;20260;-65
2024/03/26 04:14:43;;;;;;;4.43;3.80;;;4.70;99.90;;;;;;4953281;28;20543;-67
2024/03/26 04:17:08;;;;;;;4.20;3.80;;;4.70;99.90;;;;;;4952299;28;20553;-65
2024/03/26 04:19:34;;;;;;;4.80;4.30;;;4.80;99.90;;;;;;4953316;28;20177;-66
2024/03/26 04:21:59;;;;;;;6.77;3.93;;;4.80;99.90;;;;;;4953175;28;20173;-68
2024/03/26 04:24:25;;;;;;;5.23;4.13;;;4.60;99.90;;;;;;4950115;28;20239;-65
2024/03/26 04:26:50;;;;;;;4.77;3.90;;;4.60;99.90;;;;;;4952740;28;20176;-66
2024/03/26 04:29:16;;;;;;;6.23;4.50;;;4.60;99.90;;;;;;4953746;28;20208;-65
2024/03/26 04:31:41;;;;;;;5.80;4.23;;;4.60;99.90;;;;;;4954210;29;20211;-66
2024/03/26 04:34:07;;;;;;;9.73;4.00;;;4.60;99.90;;;;;;4952925;28;20555;-66
2024/03/26 04:36:33;;;;;;;6.83;4.20;;;4.50;99.90;;;;;;4952875;28;20271;-65
2024/03/26 04:38:58;;;;;;;5.67;4.60;;;4.50;99.90;;;;;;4951399;28;20319;-66
2024/03/26 04:41:24;;;;;;;4.67;4.37;;;4.50;99.90;;;;;;4950945;28;20558;-66
2024/03/26 04:43:49;;;;;;;6.00;4.77;;;4.50;99.90;;;;;;4952339;28;20177;-67
2024/03/26 04:46:15;;;;;;;6.17;4.17;;;4.50;99.90;;;;;;4951861;28;20185;-65
2024/03/26 04:48:40;;;;;;;6.60;4.87;;;4.40;99.90;;;;;;4945005;28;20682;-65
2024/03/26 04:51:06;;;;;;;6.07;4.03;;;4.40;99.90;;;;;;4953463;28;20569;-67
2024/03/26 04:53:31;;;;;;;4.70;4.00;;;4.40;99.90;;;;;;4952660;28;20185;-66
2024/03/26 04:55:57;;;;;;;5.60;4.40;;;4.30;99.90;;;;;;4952384;28;20199;-66
2024/03/26 04:58:22;;;;;;;8.20;4.20;;;4.30;99.90;;;;;;4953334;28;20185;-68
2024/03/26 05:00:48;;;;;;;5.10;4.70;;;4.20;99.90;;;;;;4943791;28;20241;-66
2024/03/26 05:03:14;;;;;;;6.60;4.53;;;4.30;99.90;;;;;;4964183;28;20208;-66
2024/03/26 05:05:39;;;;;;;5.70;4.90;;;4.30;99.90;;;;;;4942184;28;20472;-67
2024/03/26 05:08:05;;;;;;;4.83;4.43;;;4.40;99.90;;;;;;4951566;28;20195;-66
2024/03/26 05:10:30;;;;;;;6.83;4.37;;;4.40;99.90;;;;;;4952525;28;20185;-66
2024/03/26 05:12:56;;;;;;;6.40;4.27;;;4.50;99.90;;;;;;4953129;28;20181;-69
2024/03/26 05:15:21;;;;;;;4.40;4.00;;;4.60;99.90;;;;;;4953109;28;20215;-65
2024/03/26 05:17:47;;;;;;;9.13;6.70;;;4.60;99.90;;;;;;4952746;28;20178;-66
2024/03/26 05:20:13;;;;;;;4.57;4.17;;;4.70;99.90;;;;;;4953153;28;20219;-68
2024/03/26 05:22:39;;;;;;;5.20;4.40;;;4.70;99.90;;;;;;4951784;28;20263;-69
2024/03/26 05:25:05;;;;;;;3.93;3.60;;;4.80;99.90;;;;;;4949563;28;20559;-69
2024/03/26 05:27:32;;;;;;;6.10;4.60;;;4.70;99.90;;;;;;4951752;28;20330;-70
2024/03/26 05:29:57;;;;;;;9.53;4.07;;;4.80;99.90;;;;;;4950049;29;20503;-66
2024/03/26 05:32:23;;;;;;;5.00;3.90;;;4.90;99.90;;;;;;4952591;28;20475;-66
2024/03/26 05:34:49;;;;;;;5.53;4.00;;;4.90;99.90;;;;;;4952508;28;20209;-66
2024/03/26 05:37:19;;;;;;;4.40;4.00;;;5.00;99.90;;;;;;4952799;28;20193;-66
2024/03/26 05:39:45;;;;;;;4.57;4.20;;;5.00;99.90;;;;;;4952904;28;20463;-66
2024/03/26 05:42:10;;;;;;;4.90;4.10;;;5.10;99.90;;;;;;4956638;28;20424;-67
2024/03/26 05:44:36;;;;;;;6.93;4.20;;;5.10;99.90;;;;;;4944125;28;20763;-66
2024/03/26 05:47:02;;;;;;;6.20;4.30;;;5.10;99.90;;;;;;4954271;28;20180;-66
2024/03/26 05:49:27;;;;;;;4.70;4.13;;;5.10;99.90;;;;;;4956941;28;20557;-67
2024/03/26 05:51:53;;;;;;;7.00;4.43;;;5.10;99.90;;;;;;4960081;28;20647;-66
2024/03/26 05:54:18;;;;;;;7.13;4.57;;;5.10;99.90;;;;;;4955431;28;20213;-65
2024/03/26 05:56:43;;;;;;;5.70;4.67;;;5.20;99.90;;;;;;4951980;29;20208;-68
2024/03/26 05:59:09;;;;;;;7.13;3.73;;;5.30;99.90;;;;;;4957145;28;20255;-65
2024/03/26 06:01:34;;;;;;;7.40;4.53;;;5.30;99.90;;;;;;4955588;28;20209;-66
2024/03/26 06:04:01;;;;;;;11.63;4.20;;;5.40;99.90;;;;;;4974859;23;20217;31
2024/03/26 06:06:27;;;;;;;4.50;4.10;;;5.40;99.90;;;;;;4972805;28;20220;-68
2024/03/26 06:08:52;;;;;;;4.00;3.70;;;5.40;99.90;;;;;;4973661;28;21007;-67
2024/03/26 06:11:17;;;;;;;5.07;3.80;;;5.50;99.90;;;;;;4978248;28;20639;-67
2024/03/26 06:13:43;;;;;;;4.30;3.83;;;5.40;99.90;;;;;;4987070;28;20275;-67
2024/03/26 06:16:11;;;;;;;6.57;4.87;;;5.40;99.90;;;;;;4978380;28;20212;-68
2024/03/26 06:18:36;;;;;;;4.63;4.13;;;5.50;99.90;;;;;;4982858;28;20194;-67
2024/03/26 06:21:04;;;;;;;4.10;3.80;;;5.60;99.90;;;;;;4984121;28;20558;-67
2024/03/26 06:23:30;;;;;;;6.37;4.13;;;5.80;99.90;;;;;;4987578;28;20177;-67
2024/03/26 06:25:56;;;;;;;8.50;5.10;;;5.80;99.90;;;;;;4992324;28;20807;-68
2024/03/26 06:28:21;;;;;;;5.27;4.03;;;5.90;99.90;;;;;;4994904;28;20422;-67
2024/03/26 06:30:47;;;;;;;7.40;5.90;;;6.00;99.90;;;;;;4978886;28;20179;-68
2024/03/26 06:33:14;;;;;;;6.83;4.40;;;5.90;99.90;;;;;;4995158;28;20245;-67
2024/03/26 06:35:40;;;;;;;5.93;5.17;;;5.80;99.90;;;;;;4993813;28;20447;-67
2024/03/26 06:38:06;;;;;;;8.43;4.80;;;5.80;99.90;;;;;;4994746;28;20433;-68
2024/03/26 06:40:32;;;;;;;6.93;4.20;;;5.80;99.90;;;;;;4992580;28;20208;-67
2024/03/26 06:42:58;;;;;;;5.83;4.50;;;5.90;99.90;;;;;;4995276;28;20473;-67
2024/03/26 06:45:23;;;;;;;5.13;4.33;;;6.10;99.90;;;;;;4995164;28;20438;-67
2024/03/26 06:47:49;;;;;;;4.73;4.33;;;6.20;99.90;;;;;;4994487;28;20255;-67
2024/03/26 06:50:15;;;;;;;5.20;4.70;;;6.30;99.90;;;;;;4993681;28;20184;-67
2024/03/26 06:52:40;;;;;;;5.33;4.83;;;6.20;99.90;;;;;;4994057;28;20633;-67
2024/03/26 06:55:06;;;;;;;5.30;4.80;;;6.30;99.90;;;;;;4995146;28;20567;-67
2024/03/26 06:57:32;;;;;;;6.87;5.00;;;6.30;99.90;;;;;;4994196;28;20207;-67
2024/03/26 06:59:58;;;;;;;5.13;4.60;;;6.40;99.90;;;;;;4988639;28;20494;-68
2024/03/26 07:02:24;;;;;;;8.03;5.07;;;6.40;99.90;;;;;;4975430;28;20640;-67
2024/03/26 07:04:50;;;;;;;5.97;4.90;;;6.40;99.90;;;;;;4976301;28;20537;-67
2024/03/26 07:07:15;;;;;;;6.67;4.87;;;6.40;99.90;;;;;;4974671;28;20490;-67
2024/03/26 07:09:41;;;;;;;7.27;5.17;;;6.50;99.90;;;;;;4975562;28;20830;-67
2024/03/26 07:12:07;;;;;;;8.10;5.60;;;6.70;99.90;;;;;;4975668;28;20749;-67
2024/03/26 07:14:33;;;;;;;6.07;5.33;;;6.80;99.90;;;;;;4975232;28;20192;-68
2024/03/26 07:16:59;;;;;;;5.80;4.77;;;7.00;99.90;;;;;;4974427;28;20781;-67
2024/03/26 07:19:24;;;;;;;8.40;4.93;;;7.20;99.90;;;;;;4975255;28;20168;-67
2024/03/26 07:21:50;;;;;;;7.20;4.70;;;7.20;99.90;;;;;;4976336;28;20259;-67
2024/03/26 07:24:15;;;;;;;7.63;5.93;;;7.30;99.90;;;;;;4974893;28;20179;-67
2024/03/26 07:26:41;;;;;;;8.27;5.03;;;7.30;99.90;;;;;;4974120;28;20188;-67
2024/03/26 07:29:06;;;;;;;6.47;4.97;;;7.20;99.90;;;;;;4975194;28;20176;-68
2024/03/26 07:31:32;;;;;;;12.30;5.73;;;7.40;99.90;;;;;;4975478;28;20602;-69
2024/03/26 07:33:58;;;;;;;5.53;5.03;;;7.60;99.90;;;;;;4975982;28;20795;-67
2024/03/26 07:36:24;;;;;;;5.00;4.60;;;7.80;99.90;;;;;;4974151;28;20432;-67
2024/03/26 07:38:50;;;;;;;9.93;6.97;;;8.10;99.90;;;;;;4974548;28;20180;-68
2024/03/26 07:41:18;;;;;;;11.03;6.67;;;8.10;99.90;;;;;;4973613;28;20990;-67
2024/03/26 07:43:43;;;;;;;5.73;5.10;;;8.10;99.90;;;;;;4974282;28;20428;-68
2024/03/26 07:46:09;;;;;;;8.67;5.07;;;8.20;99.90;;;;;;4974617;28;20960;-69
2024/03/26 07:48:35;;;;;;;6.67;5.40;;;8.20;99.90;;;;;;4973862;28;20243;-68
2024/03/26 07:51:04;;;;;;;6.00;4.40;;;8.30;99.90;;;;;;4975742;28;20290;-68
2024/03/26 07:53:29;;;;;;;5.33;4.63;;;8.50;99.90;;;;;;4973351;28;20592;-68
2024/03/26 07:55:55;;;;;;;6.50;4.90;;;8.50;99.90;;;;;;4973498;28;20522;-68
2024/03/26 07:58:21;;;;;;;5.80;4.77;;;8.70;99.90;;;;;;4973344;28;20184;-68
2024/03/26 08:00:47;;;;;;;5.07;4.40;;;8.60;99.90;;;;;;5004699;28;20566;-67
2024/03/26 08:03:12;;;;;;;11.47;7.57;;;8.80;99.90;;;;;;4993714;28;20182;-68
2024/03/26 08:05:38;;;;;;;5.33;4.50;;;8.80;99.90;;;;;;4991960;28;20458;-68
2024/03/26 08:08:04;;;;;;;5.23;4.67;;;8.70;99.90;;;;;;4992906;28;20519;-68
2024/03/26 08:10:30;;;;;;;6.40;4.97;;;8.60;99.90;;;;;;4993767;28;20199;-67
2024/03/26 08:12:56;;;;;;;4.70;4.20;;;8.50;99.90;;;;;;4970794;28;20442;-68
2024/03/26 08:15:21;;;;;;;4.93;4.43;;;8.70;99.90;;;;;;4973377;28;20455;-67
2024/03/26 08:17:47;;;;;;;4.47;4.00;;;8.90;99.90;;;;;;4973077;28;20189;-67
2024/03/26 08:20:13;;;;;;;6.87;4.30;;;9.00;99.90;;;;;;4979754;28;20250;-67
2024/03/26 08:22:39;;;;;;;5.43;4.33;;;9.10;99.90;;;;;;4979194;28;20423;-68
2024/03/26 08:25:05;;;;;;;6.20;4.63;;;9.40;99.90;;;;;;4973544;28;20842;-68
2024/03/26 08:27:31;;;;;;;9.00;7.03;;;9.70;99.90;;;;;;4972565;28;20227;-67
2024/03/26 08:29:58;;;;;;;8.17;5.10;;;9.80;99.90;;;;;;4992038;28;20435;-68
2024/03/26 08:32:23;;;;;;;7.40;6.53;;;10.10;99.90;;;;;;4992198;28;20422;-67
2024/03/26 08:34:49;;;;;;;3.17;2.80;;;10.20;99.90;;;;;;4991469;28;21011;-67
2024/03/26 08:37:14;;;;;;;3.73;3.30;;;9.90;99.90;;;;;;4992210;28;20222;-68
2024/03/26 08:39:40;;;;;;;4.10;3.47;;;9.80;99.90;;;;;;4992874;28;20171;-67
2024/03/26 08:42:05;;;;;;;6.57;3.80;;;9.90;99.90;;;;;;4987224;28;20199;-68
2024/03/26 08:44:31;;;;;;;2.50;2.30;;;10.30;99.90;;;;;;4973424;28;20212;-68
2024/03/26 08:46:57;;;;;;;4.50;2.77;;;10.30;99.90;;;;;;4972905;28;20238;-68
2024/03/26 08:49:22;;;;;;;3.40;2.80;;;10.60;99.90;;;;;;4973289;28;20524;-67
2024/03/26 08:51:48;;;;;;;4.40;2.70;;;11.10;99.90;;;;;;4974547;28;20444;-67
2024/03/26 08:54:14;;;;;;;5.63;2.93;;;11.90;99.90;;;;;;4965141;28;20184;-67
2024/03/26 08:56:39;;;;;;;3.30;3.00;;;12.60;99.90;;;;;;4961605;28;20181;-68
2024/03/26 08:59:05;;;;;;;3.03;2.83;;;12.90;99.90;;;;;;4992364;28;20192;-68
2024/03/26 09:01:31;;;;;;;3.70;3.40;;;13.40;98.90;;;;;;4991925;28;20203;-67
2024/03/26 09:03:57;;;;;;;2.50;2.30;;;13.60;97.50;;;;;;4992445;28;20454;-68
2024/03/26 09:06:22;;;;;;;4.50;3.00;;;13.60;96.80;;;;;;4990336;28;20211;-69
2024/03/26 09:08:48;;;;;;;2.97;2.77;;;14.50;95.70;;;;;;4988192;28;20203;-67
2024/03/26 09:11:14;;;;;;;2.83;2.63;;;15.50;89.70;;;;;;4992752;28;20270;-68
2024/03/26 09:13:41;;;;;;;3.07;2.77;;;16.90;83.50;;;;;;4992290;28;20502;-68
2024/03/26 09:16:07;;;;;;;4.40;2.97;;;17.70;73.70;;;;;;5006271;28;20203;-68
2024/03/26 09:18:33;;;;;;;3.33;3.03;;;18.40;66.80;;;;;;4991676;28;20418;-67
2024/03/26 09:20:59;;;;;;;3.00;2.50;;;18.80;62.00;;;;;;5007037;28;20462;-68
2024/03/26 09:23:24;;;;;;;3.37;2.93;;;19.30;56.90;;;;;;4991780;28;20415;-69
2024/03/26 09:25:50;;;;;;;4.60;2.27;;;19.70;54.50;;;;;;4992012;28;20231;-69
2024/03/26 09:28:15;;;;;;;3.60;3.30;;;20.70;49.80;;;;;;4991584;28;20172;-69
2024/03/26 09:30:42;;;;;;;3.57;3.23;;;21.50;46.30;;;;;;4989191;28;20184;-68
2024/03/26 09:33:08;;;;;;;3.13;2.83;;;21.20;43.80;;;;;;4971766;28;20300;-69
2024/03/26 09:35:33;;;;;;;3.20;2.90;;;20.10;44.90;;;;;;4972815;28;20447;-69
2024/03/26 09:37:59;;;;;;;2.93;2.73;;;20.10;44.50;;;;;;4972916;28;20206;-69
2024/03/26 09:40:24;;;;;;;3.57;3.23;;;19.50;44.40;;;;;;4972096;28;20573;-68
2024/03/26 09:42:51;;;;;;;3.93;2.90;;;19.60;44.80;;;;;;4970356;28;20181;-68
2024/03/26 09:45:19;;;;;;;2.90;2.70;;;19.80;44.10;;;;;;4972640;28;20704;-68
2024/03/26 09:47:48;;;;;;;4.93;2.80;;;20.60;42.90;;;;;;4972485;28;20423;-68
2024/03/26 09:50:14;;;;;;;3.43;3.13;;;22.00;40.30;;;;;;4972605;28;20432;-69
2024/03/26 09:52:46;;;;;;;2.87;2.63;;;22.70;37.70;;;;;;4986511;28;20430;-68
2024/03/26 09:55:14;;;;;;;2.80;2.60;;;22.60;37.10;;;;;;4992202;28;20469;-69
2024/03/26 09:57:41;;;;;;;5.00;3.50;;;22.60;35.30;;;;;;4990878;28;20418;-69
2024/03/26 10:00:07;;;;;;;5.00;3.27;;;23.40;34.50;;;;;;4971668;28;20988;-69
2024/03/26 10:02:33;;;;;;;4.23;3.07;;;23.70;32.50;;;;;;4971753;28;20502;-68
2024/03/26 10:04:58;;;;;;;2.97;2.77;;;24.00;31.30;;;;;;4973456;28;20555;-69
2024/03/26 10:07:24;;;;;;;3.60;3.07;;;23.60;31.30;;;;;;4974274;28;20184;-70
2024/03/26 10:09:50;;;;;;;4.87;3.77;;;24.70;31.10;;;;;;4974259;28;20245;-69
2024/03/26 10:12:15;;;;;;;3.87;3.50;;;24.70;29.80;;;;;;4974285;28;20184;-70
2024/03/26 10:14:41;;;;;;;6.80;3.60;;;24.90;28.50;;;;;;4990485;28;20593;-70
2024/03/26 10:17:06;;;;;;;3.00;2.60;;;24.80;29.00;;;;;;5007833;28;20785;-69
2024/03/26 10:19:32;;;;;;;5.80;3.40;;;22.70;28.80;;;;;;4993119;28;20179;-69
2024/03/26 10:21:58;;;;;;;2.93;2.63;;;23.40;29.30;;;;;;4982599;28;20180;-69
2024/03/26 10:24:24;;;;;;;2.83;2.50;;;24.40;28.90;;;;;;4972611;28;20199;-69
2024/03/26 10:26:50;;;;;;;3.63;2.70;;;25.30;27.30;;;;;;4972641;28;20183;-69
2024/03/26 10:29:16;;;;;;;3.90;2.57;;;26.40;26.50;;;;;;4975915;28;20502;-70
2024/03/26 10:31:44;;;;;;;3.53;2.60;;;27.30;25.30;;;;;;4978512;28;20597;-69
2024/03/26 10:34:10;;;;;;;2.53;1.97;;;27.50;22.10;;;;;;4995359;28;20172;-67
2024/03/26 10:36:37;;;;;;;3.83;2.67;;;28.70;21.80;;;;;;4993788;28;20799;-67
2024/03/26 10:39:13;;;;;;;2.13;1.90;;;28.80;21.20;;;;;;4995333;28;20419;-68
2024/03/26 10:41:41;;;;;;;2.90;2.57;;;29.40;20.50;;;;;;4988225;28;20431;-68
2024/03/26 10:44:08;;;;;;;4.10;2.63;;;30.60;19.30;;;;;;4980638;28;20454;-68
2024/03/26 10:46:34;;;;;;;3.53;2.63;;;30.70;18.40;;;;;;4994581;28;20425;-69
2024/03/26 10:49:01;;;;;;;3.40;3.10;;;30.30;18.40;;;;;;4995206;28;20990;-70
2024/03/26 10:51:29;;;;;;;6.87;3.20;;;30.40;18.20;;;;;;4990261;28;20483;-69
2024/03/26 10:53:59;;;;;;;5.30;3.60;;;30.00;18.10;;;;;;4976521;28;20523;-67
2024/03/26 10:56:26;;;;;;;3.73;3.30;;;29.10;19.50;;;;;;4975135;28;20431;-67
2024/03/26 10:58:59;;;;;;;6.40;4.90;;;29.70;19.20;;;;;;4975542;28;20420;-67
2024/03/26 11:01:27;;;;;;;4.67;3.77;;;29.20;19.20;;;;;;4975426;28;20434;-67
2024/03/26 11:03:53;;;;;;;5.00;4.10;;;29.80;19.50;;;;;;4975624;28;20507;-68
2024/03/26 11:06:21;;;;;;;6.37;5.40;;;29.60;18.80;;;;;;4974810;28;20553;-68
2024/03/26 11:08:46;;;;;;;6.07;5.30;;;29.80;19.00;;;;;;4975950;28;20434;-67
2024/03/26 11:11:18;;;;;;;5.80;4.67;;;30.00;18.90;;;;;;4973808;28;20455;-69
2024/03/26 11:13:44;;;;;;;8.53;4.73;;;29.60;18.90;;;;;;4989696;28;20887;-68
2024/03/26 11:16:33;;;;;;;4.10;3.80;;;30.50;18.90;;;;;;4995055;28;20446;-68
2024/03/26 11:19:24;;;;;;;5.83;3.87;;;30.90;18.00;;;;;;4996122;28;20428;-68
2024/03/26 11:21:50;;;;;;;6.97;4.67;;;31.80;17.20;;;;;;4992089;28;20427;-67
2024/03/26 11:24:45;;;;;;;6.40;4.20;;;32.50;16.70;;;;;;4990393;28;20434;-68
2024/03/26 11:27:11;;;;;;;4.00;3.60;;;32.30;16.40;;;;;;4996710;28;20482;-68
2024/03/26 11:29:42;;;;;;;5.13;4.30;;;31.80;16.10;;;;;;4994317;28;20423;-68
2024/03/26 11:32:07;;;;;;;5.10;4.03;;;32.10;16.20;;;;;;4993073;28;20203;-68
2024/03/26 11:34:33;;;;;;;6.77;4.57;;;32.70;15.50;;;;;;4992124;28;20505;-68
2024/03/26 11:36:59;;;;;;;6.97;4.27;;;32.00;15.90;;;;;;4991918;28;20210;-67
2024/03/26 11:39:25;;;;;;;4.37;4.03;;;31.70;16.50;;;;;;4993574;28;20198;-67
2024/03/26 11:41:52;;;;;;;4.33;3.97;;;31.80;16.30;;;;;;4994092;28;20916;-68
2024/03/26 11:44:18;;;;;;;4.43;4.13;;;31.80;15.60;;;;;;4979566;28;20436;-67
2024/03/26 11:46:47;;;;;;;7.40;3.80;;;32.50;15.50;;;;;;4972656;28;20431;-67
2024/03/26 11:49:12;;;;;;;4.63;3.53;;;32.50;15.30;;;;;;4974458;28;20183;-68
2024/03/26 11:51:38;;;;;;;5.20;4.10;;;32.60;14.90;;;;;;4975580;28;20463;-66
2024/03/26 11:54:05;;;;;;;4.60;4.10;;;33.20;14.80;;;;;;4974179;28;20180;-67
2024/03/26 11:56:33;;;;;;;3.20;3.00;;;33.20;14.20;;;;;;4973878;28;20444;-67
2024/03/26 11:58:58;;;;;;;4.50;4.10;;;33.20;14.10;;;;;;4974297;28;20860;-67
2024/03/26 12:01:25;;;;;;;4.33;3.87;;;33.30;14.70;;;;;;4974315;28;20421;-66
2024/03/26 12:03:58;;;;;;;5.93;4.83;;;32.70;14.30;;;;;;4987132;28;20190;-66
2024/03/26 12:06:25;;;;;;;4.90;3.87;;;30.30;15.20;;;;;;4989265;23;20496;-68
2024/03/26 12:08:59;;;;;;;3.93;3.53;;;27.90;17.10;;;;;;4967936;28;20425;-68
2024/03/26 12:11:25;;;;;;;6.33;3.73;;;28.00;17.30;;;;;;4962659;28;20461;-68
2024/03/26 12:13:51;;;;;;;5.07;4.03;;;29.70;16.40;;;;;;4960752;28;20460;-69
2024/03/26 12:16:29;;;;;;;4.03;3.60;;;31.50;15.30;;;;;;4953738;28;20490;-68
2024/03/26 12:18:56;;;;;;;4.77;3.30;;;32.10;14.40;;;;;;4936631;29;20818;-69
2024/03/26 12:21:22;;;;;;;4.00;3.13;;;32.60;13.40;;;;;;4936475;29;20489;-68
2024/03/26 12:23:52;;;;;;;3.53;2.70;;;33.20;13.00;;;;;;4953271;28;20459;-67
2024/03/26 12:26:19;;;;;;;4.03;2.63;;;33.60;12.00;;;;;;4954138;28;21227;-68
2024/03/26 12:28:44;;;;;;;3.53;2.97;;;33.00;12.00;;;;;;4943480;28;20872;-68
2024/03/26 12:31:10;;;;;;;3.43;2.77;;;32.80;12.10;;;;;;4954509;28;20459;-68
2024/03/26 12:33:36;;;;;;;3.07;2.80;;;31.50;12.00;;;;;;4954551;28;20181;-69
2024/03/26 12:36:05;;;;;;;3.90;2.67;;;30.40;12.50;;;;;;4953968;28;20201;-68
2024/03/26 12:38:33;;;;;;;3.80;3.00;;;29.60;13.00;;;;;;4943113;28;20173;-68
2024/03/26 12:40:59;;;;;;;3.60;3.20;;;29.90;13.40;;;;;;4946268;28;20432;-69
2024/03/26 12:43:25;;;;;;;2.50;2.30;;;30.40;13.00;;;;;;4954365;28;20793;-68
2024/03/26 12:45:50;;;;;;;3.70;2.70;;;30.90;12.90;;;;;;4954008;28;20447;-69
2024/03/26 12:48:16;;;;;;;3.40;3.10;;;30.80;13.00;;;;;;4945161;28;20264;-68